Time;durP1;ratioP1;P1;durP2;ratioP2;P2;SDS_P1;SDS_P2;PMS_P1;PMS_P2;Temp;Humidity;BMP_temperature;BMP_pressure;BME280_temperature;BME280_humidity;BME280_pressure;Samples;Min_cycle;Max_cycle;Signal;HPM_P1;HPM_P2
2022/06/11 00:00:29;;;;;;;5.30;3.97;;;22.10;51.60;;;;;;4885627;29;20827;-91
2022/06/11 00:02:58;;;;;;;4.70;4.30;;;22.00;50.60;;;;;;4906077;29;20960;-92
2022/06/11 00:05:28;;;;;;;4.87;4.00;;;22.00;50.40;;;;;;4884822;29;20459;-90
2022/06/11 00:07:59;;;;;;;3.73;3.50;;;21.90;50.50;;;;;;4880979;29;20468;-90
2022/06/11 00:10:27;;;;;;;5.20;4.10;;;21.90;50.60;;;;;;4869843;29;20466;-91
2022/06/11 00:12:56;;;;;;;4.97;4.10;;;21.80;50.90;;;;;;4886044;29;20454;-92
2022/06/11 00:15:25;;;;;;;5.70;5.10;;;21.80;51.30;;;;;;4890318;29;20464;-91
2022/06/11 00:17:56;;;;;;;5.43;4.27;;;21.70;51.30;;;;;;4893925;29;20519;-91
2022/06/11 00:20:24;;;;;;;5.50;4.13;;;21.70;51.40;;;;;;4887288;29;20436;-92
2022/06/11 00:22:52;;;;;;;5.33;4.10;;;21.70;51.50;;;;;;4891617;29;20491;-92
2022/06/11 00:25:23;;;;;;;5.03;4.50;;;21.70;51.60;;;;;;4887756;29;20479;-91
2022/06/11 00:27:52;;;;;;;4.13;3.73;;;21.70;51.70;;;;;;4879475;29;20471;-90
2022/06/11 00:30:21;;;;;;;5.23;4.43;;;21.70;52.00;;;;;;4881866;29;20473;-90
2022/06/11 00:32:50;;;;;;;5.07;4.67;;;21.70;51.90;;;;;;4863129;29;20467;-92
2022/06/11 00:35:18;;;;;;;6.03;3.63;;;21.70;52.10;;;;;;4875187;29;20475;-90
2022/06/11 00:37:46;;;;;;;6.10;3.83;;;21.60;51.90;;;;;;4867169;29;20472;-91
2022/06/11 00:40:17;;;;;;;4.80;4.13;;;21.60;51.50;;;;;;4882360;29;20467;-92
2022/06/11 00:42:47;;;;;;;5.90;4.20;;;21.60;51.50;;;;;;4879067;29;20487;-91
2022/06/11 00:45:24;;;;;;;4.40;4.10;;;21.50;51.20;;;;;;4893598;29;20477;-90
2022/06/11 00:47:56;;;;;;;5.33;3.90;;;21.60;51.30;;;;;;4889852;29;20467;-93
2022/06/11 00:50:29;;;;;;;6.43;3.33;;;21.50;51.20;;;;;;4861115;29;20451;-90
2022/06/11 00:52:59;;;;;;;7.20;4.20;;;21.50;51.30;;;;;;4896525;29;20677;-92
2022/06/11 00:55:33;;;;;;;4.03;3.70;;;21.40;51.60;;;;;;4872385;29;20475;-90
2022/06/11 00:58:07;;;;;;;4.57;4.17;;;21.40;51.70;;;;;;4891127;29;20456;-92
2022/06/11 01:00:38;;;;;;;4.43;3.63;;;21.40;51.60;;;;;;4888879;29;20446;-93
2022/06/11 01:03:07;;;;;;;7.23;3.83;;;21.30;51.30;;;;;;4904054;29;20459;-91
2022/06/11 01:05:39;;;;;;;4.17;3.77;;;21.20;51.30;;;;;;4888261;29;20980;-91
2022/06/11 01:08:36;;;;;;;7.97;4.13;;;21.00;51.60;;;;;;4873978;29;20468;-90
2022/06/11 01:11:43;;;;;;;7.63;4.00;;;21.00;51.90;;;;;;4881059;29;20456;-91
2022/06/11 01:14:40;;;;;;;4.10;3.80;;;20.90;51.90;;;;;;4863214;29;20467;-92
2022/06/11 01:17:19;;;;;;;5.10;4.33;;;21.00;51.70;;;;;;4891909;29;20444;-91
2022/06/11 01:20:30;;;;;;;4.53;3.70;;;21.00;51.70;;;;;;4867022;29;20435;-90
2022/06/11 01:23:37;;;;;;;4.17;3.77;;;21.00;51.50;;;;;;4865299;29;20448;-91
2022/06/11 01:26:32;;;;;;;3.90;3.50;;;21.00;51.30;;;;;;4876955;29;20491;-90
2022/06/11 01:29:12;;;;;;;4.03;3.73;;;21.00;51.50;;;;;;4889925;29;20540;-90
2022/06/11 01:31:47;;;;;;;4.57;3.97;;;20.90;51.60;;;;;;4899941;29;20447;-91
2022/06/11 01:34:23;;;;;;;3.83;3.50;;;20.90;51.40;;;;;;4884242;29;20841;-90
2022/06/11 01:36:56;;;;;;;3.90;3.07;;;20.80;51.60;;;;;;4907511;29;20444;-90
2022/06/11 01:39:32;;;;;;;3.90;3.30;;;20.80;51.40;;;;;;4881455;29;20443;-93
2022/06/11 01:42:04;;;;;;;3.80;3.50;;;20.80;51.40;;;;;;4888379;29;20451;-90
2022/06/11 01:44:38;;;;;;;5.90;3.67;;;20.80;51.40;;;;;;4864186;29;20998;-92
2022/06/11 01:47:09;;;;;;;4.13;3.73;;;20.80;51.50;;;;;;4867837;29;20491;-90
2022/06/11 01:49:43;;;;;;;4.10;3.70;;;20.80;51.60;;;;;;4901864;29;20476;-91
2022/06/11 01:52:32;;;;;;;4.17;3.87;;;20.80;51.70;;;;;;4883611;29;20447;-91
2022/06/11 01:55:11;;;;;;;4.17;3.77;;;20.70;51.60;;;;;;4886998;29;21001;-90
2022/06/11 01:58:18;;;;;;;6.63;3.70;;;20.80;51.70;;;;;;4871186;29;21024;-91
2022/06/11 02:00:52;;;;;;;3.63;3.33;;;20.70;51.90;;;;;;4888114;29;20446;-91
2022/06/11 02:03:30;;;;;;;5.50;3.70;;;20.70;51.90;;;;;;4893461;29;20466;-91
2022/06/11 02:06:16;;;;;;;4.27;3.87;;;20.60;51.80;;;;;;4891259;29;20899;-90
2022/06/11 02:08:57;;;;;;;4.47;4.07;;;20.60;51.80;;;;;;4894984;29;20550;-91
2022/06/11 02:11:33;;;;;;;9.77;4.47;;;20.50;51.90;;;;;;4883425;29;20518;-90
2022/06/11 02:14:08;;;;;;;5.27;4.23;;;20.50;51.90;;;;;;4912030;29;20537;-92
2022/06/11 02:16:45;;;;;;;4.70;3.57;;;20.50;51.70;;;;;;4897835;29;20456;-91
2022/06/11 02:19:19;;;;;;;7.00;4.23;;;20.40;51.70;;;;;;4894296;29;20456;-93
2022/06/11 02:21:53;;;;;;;4.77;4.27;;;20.50;51.20;;;;;;4890761;29;20451;-91
2022/06/11 02:24:29;;;;;;;4.03;3.63;;;20.40;51.20;;;;;;4876318;29;20478;-90
2022/06/11 02:27:04;;;;;;;5.20;4.07;;;20.40;51.40;;;;;;4893664;29;20505;-90
2022/06/11 02:29:35;;;;;;;4.17;3.10;;;20.30;51.30;;;;;;4903569;29;20439;-90
2022/06/11 02:32:08;;;;;;;3.40;3.10;;;20.40;51.30;;;;;;4881332;29;20437;-92
2022/06/11 02:34:41;;;;;;;7.07;3.73;;;20.30;51.30;;;;;;4893949;29;20565;-90
2022/06/11 02:37:17;;;;;;;7.70;4.10;;;20.30;51.40;;;;;;4879833;29;20447;-90
2022/06/11 02:39:46;;;;;;;4.63;3.80;;;20.20;51.40;;;;;;4868409;29;20456;-90
2022/06/11 02:42:19;;;;;;;4.30;3.90;;;20.20;51.50;;;;;;4889329;29;20817;-91
2022/06/11 02:44:48;;;;;;;5.53;4.43;;;20.20;51.60;;;;;;4882604;29;20845;-90
2022/06/11 02:47:18;;;;;;;4.67;4.20;;;20.10;51.50;;;;;;4895030;29;20874;-91
2022/06/11 02:49:48;;;;;;;5.90;4.90;;;20.10;51.60;;;;;;4889279;29;20457;-91
2022/06/11 02:52:19;;;;;;;5.57;4.03;;;20.00;51.70;;;;;;4872544;29;20486;-91
2022/06/11 02:54:50;;;;;;;5.07;4.57;;;20.00;51.60;;;;;;4894677;29;20474;-90
2022/06/11 02:57:23;;;;;;;5.20;4.30;;;20.00;51.30;;;;;;4880078;29;20460;-90
2022/06/11 02:59:53;;;;;;;7.13;4.20;;;20.00;51.30;;;;;;4875299;29;20826;-90
2022/06/11 03:02:24;;;;;;;4.67;4.27;;;19.90;51.20;;;;;;4898054;29;20456;-90
2022/06/11 03:04:56;;;;;;;4.23;3.60;;;19.90;51.20;;;;;;4916864;29;20463;-95
2022/06/11 03:07:25;;;;;;;4.07;3.77;;;19.90;51.20;;;;;;4904851;29;21414;-94
2022/06/11 03:09:55;;;;;;;4.13;3.73;;;19.80;51.30;;;;;;4909812;29;20458;-91
2022/06/11 03:12:23;;;;;;;5.33;4.53;;;19.70;51.40;;;;;;4887914;29;20465;-92
2022/06/11 03:14:51;;;;;;;5.30;4.50;;;19.70;51.50;;;;;;4914495;29;20478;-91
2022/06/11 03:17:21;;;;;;;5.00;4.60;;;19.70;51.80;;;;;;4880989;29;20455;-90
2022/06/11 03:19:50;;;;;;;7.50;4.53;;;19.60;52.10;;;;;;4898509;29;20456;-90
2022/06/11 03:22:21;;;;;;;4.70;4.30;;;19.60;52.50;;;;;;4864416;29;20969;-91
2022/06/11 03:24:48;;;;;;;4.30;4.00;;;19.60;52.50;;;;;;4895822;29;20474;-90
2022/06/11 03:27:17;;;;;;;5.17;4.23;;;19.60;52.50;;;;;;4869908;29;20864;-92
2022/06/11 03:29:45;;;;;;;5.13;4.07;;;19.60;52.30;;;;;;4886464;29;20559;-91
2022/06/11 03:32:14;;;;;;;4.70;4.10;;;19.70;52.40;;;;;;4868416;29;20466;-90
2022/06/11 03:34:42;;;;;;;4.63;4.00;;;19.60;52.40;;;;;;4868093;29;20532;-90
2022/06/11 03:37:11;;;;;;;5.23;4.73;;;19.00;53.30;;;;;;4866743;29;20518;-91
2022/06/11 03:39:42;;;;;;;4.53;4.00;;;19.00;54.00;;;;;;4879277;29;20976;-92
2022/06/11 03:42:13;;;;;;;4.77;4.30;;;19.00;53.80;;;;;;4896249;29;21481;-90
2022/06/11 03:44:41;;;;;;;6.13;4.30;;;19.10;53.50;;;;;;4910700;29;20594;-90
2022/06/11 03:47:09;;;;;;;4.60;3.93;;;19.20;53.50;;;;;;4896228;29;20453;-90
2022/06/11 03:49:38;;;;;;;4.77;4.37;;;19.20;53.30;;;;;;4884455;29;20886;-90
2022/06/11 03:52:10;;;;;;;4.43;4.03;;;19.00;53.70;;;;;;4883030;29;20444;-92
2022/06/11 03:54:39;;;;;;;4.53;4.17;;;19.00;53.50;;;;;;4878461;29;21581;-91
2022/06/11 03:57:09;;;;;;;6.60;5.00;;;19.00;53.70;;;;;;4877461;29;20441;-90
2022/06/11 03:59:38;;;;;;;6.47;4.30;;;19.20;53.40;;;;;;4888508;29;20448;-90
2022/06/11 04:02:08;;;;;;;4.50;4.10;;;19.30;53.50;;;;;;4883674;29;20539;-90
2022/06/11 04:04:36;;;;;;;4.77;4.10;;;19.30;53.50;;;;;;4874697;29;20480;-94
2022/06/11 04:07:05;;;;;;;6.73;3.63;;;19.30;53.10;;;;;;4881739;29;20872;-90
2022/06/11 04:09:35;;;;;;;5.80;3.93;;;19.40;53.20;;;;;;4900481;29;20562;-90
2022/06/11 04:12:09;;;;;;;5.20;4.27;;;19.40;53.20;;;;;;4894542;29;20444;-91
2022/06/11 04:14:43;;;;;;;5.43;4.27;;;19.50;53.50;;;;;;4895649;29;20491;-91
2022/06/11 04:17:15;;;;;;;5.50;4.63;;;19.50;53.40;;;;;;4882595;29;20531;-94
2022/06/11 04:19:45;;;;;;;3.90;3.60;;;19.40;53.40;;;;;;4875477;29;20484;-90
2022/06/11 04:22:15;;;;;;;4.40;3.40;;;19.40;53.40;;;;;;4881256;29;20471;-91
2022/06/11 04:24:46;;;;;;;4.23;3.83;;;19.50;53.60;;;;;;4879458;29;21023;-90
2022/06/11 04:27:17;;;;;;;4.27;3.87;;;19.60;54.00;;;;;;4877789;29;20447;-91
2022/06/11 04:29:50;;;;;;;4.40;4.10;;;19.60;53.40;;;;;;4879443;29;21106;-90
2022/06/11 04:32:20;;;;;;;5.27;4.13;;;19.70;53.40;;;;;;4885681;29;20463;-92
2022/06/11 04:34:49;;;;;;;4.23;3.83;;;19.70;53.30;;;;;;4893926;29;20475;-91
2022/06/11 04:37:22;;;;;;;4.03;3.63;;;19.80;53.20;;;;;;4881356;29;20460;-91
2022/06/11 04:39:52;;;;;;;5.47;4.47;;;19.80;53.20;;;;;;4889592;29;20444;-91
2022/06/11 04:42:22;;;;;;;8.27;4.90;;;19.80;53.10;;;;;;4865566;29;20468;-90
2022/06/11 04:44:52;;;;;;;5.07;4.17;;;19.90;53.10;;;;;;4882810;29;20472;-91
2022/06/11 04:47:24;;;;;;;6.40;4.00;;;19.90;53.50;;;;;;4899405;29;22540;-90
2022/06/11 04:49:54;;;;;;;6.37;4.50;;;19.60;54.20;;;;;;4881145;29;20475;-91
2022/06/11 04:52:22;;;;;;;4.70;4.07;;;19.40;54.80;;;;;;4896586;29;21321;-90
2022/06/11 04:54:51;;;;;;;6.60;4.43;;;19.50;54.70;;;;;;4865238;29;20507;-91
2022/06/11 04:57:19;;;;;;;8.17;4.73;;;19.50;54.80;;;;;;4881913;29;20456;-91
2022/06/11 04:59:48;;;;;;;4.80;4.30;;;19.60;54.70;;;;;;4883288;29;20449;-92
2022/06/11 05:02:18;;;;;;;5.33;4.40;;;19.80;54.40;;;;;;4891674;29;20972;-90
2022/06/11 05:04:46;;;;;;;4.80;4.30;;;19.90;54.10;;;;;;4883984;29;22203;-90
2022/06/11 05:07:14;;;;;;;5.33;4.83;;;20.00;54.30;;;;;;4876929;29;20456;-93
2022/06/11 05:09:43;;;;;;;5.40;4.23;;;20.10;54.20;;;;;;4871919;29;20528;-90
2022/06/11 05:12:13;;;;;;;8.83;5.10;;;20.10;53.80;;;;;;4869224;29;20445;-91
2022/06/11 05:14:41;;;;;;;5.13;4.63;;;20.10;53.70;;;;;;4886268;29;20578;-90
2022/06/11 05:17:10;;;;;;;5.30;4.00;;;20.10;53.90;;;;;;4876724;29;20447;-91
2022/06/11 05:19:40;;;;;;;5.37;3.90;;;20.10;53.90;;;;;;4879959;29;20471;-91
2022/06/11 05:22:10;;;;;;;5.00;4.20;;;20.00;53.90;;;;;;4879506;29;20540;-90
2022/06/11 05:24:38;;;;;;;6.00;4.50;;;20.00;54.10;;;;;;4881264;29;20467;-90
2022/06/11 05:27:10;;;;;;;5.13;4.33;;;20.00;54.50;;;;;;4911911;29;20456;-91
2022/06/11 05:29:52;;;;;;;7.03;4.00;;;19.90;54.30;;;;;;4901442;29;20995;-90
2022/06/11 05:32:22;;;;;;;4.90;4.40;;;20.00;54.60;;;;;;4915894;29;20554;-90
2022/06/11 05:34:52;;;;;;;5.17;4.20;;;20.20;54.30;;;;;;4872218;29;21022;-91
2022/06/11 05:37:21;;;;;;;9.27;4.77;;;20.30;54.20;;;;;;4891195;29;20459;-91
2022/06/11 05:39:50;;;;;;;6.87;5.10;;;20.30;53.90;;;;;;4896010;29;20456;-92
2022/06/11 05:42:22;;;;;;;4.90;4.20;;;20.50;53.80;;;;;;4881012;29;20444;-91
2022/06/11 05:44:51;;;;;;;5.03;4.53;;;20.30;53.70;;;;;;4862018;29;20530;-91
2022/06/11 05:47:23;;;;;;;8.33;4.90;;;20.50;53.60;;;;;;4888334;29;20522;-91
2022/06/11 05:49:55;;;;;;;9.20;4.70;;;20.60;53.60;;;;;;4888634;29;20485;-94
2022/06/11 05:52:26;;;;;;;4.93;4.43;;;20.50;53.60;;;;;;4872030;29;20459;-90
2022/06/11 05:54:56;;;;;;;10.90;4.60;;;20.40;53.60;;;;;;4872314;29;20997;-90
2022/06/11 05:57:27;;;;;;;6.33;5.20;;;20.50;53.70;;;;;;4892560;29;20444;-92
2022/06/11 06:00:01;;;;;;;8.93;4.53;;;20.60;53.70;;;;;;4906128;29;20813;-90
2022/06/11 06:02:31;;;;;;;7.37;4.80;;;20.50;53.80;;;;;;4901420;29;20451;-90
2022/06/11 06:05:01;;;;;;;6.40;4.50;;;20.60;53.60;;;;;;4876336;29;21038;-92
2022/06/11 06:07:30;;;;;;;5.33;4.43;;;20.60;53.30;;;;;;4868066;29;20544;-90
2022/06/11 06:09:59;;;;;;;5.10;4.60;;;20.60;53.60;;;;;;4880263;29;20460;-91
2022/06/11 06:12:31;;;;;;;10.10;4.67;;;20.50;53.90;;;;;;4887173;29;20459;-91
2022/06/11 06:15:05;;;;;;;5.20;4.20;;;20.60;53.90;;;;;;4879121;29;20566;-92
2022/06/11 06:17:33;;;;;;;7.20;4.90;;;20.60;53.70;;;;;;4855967;29;20504;-93
2022/06/11 06:20:04;;;;;;;5.53;4.30;;;20.60;53.70;;;;;;4876771;29;20446;-91
2022/06/11 06:22:34;;;;;;;6.80;4.27;;;20.50;54.30;;;;;;4876800;29;20956;-92
2022/06/11 06:25:02;;;;;;;5.00;4.50;;;20.40;54.50;;;;;;4856504;29;20464;-94
2022/06/11 06:27:30;;;;;;;5.53;4.60;;;20.40;54.80;;;;;;4867738;29;20483;-91
2022/06/11 06:29:58;;;;;;;5.83;5.33;;;20.50;54.60;;;;;;4872678;29;21098;-93
2022/06/11 06:32:27;;;;;;;6.10;4.37;;;20.60;54.50;;;;;;4888219;29;20527;-90
2022/06/11 06:34:55;;;;;;;14.10;5.10;;;20.70;54.20;;;;;;4884671;29;21144;-89
2022/06/11 06:37:24;;;;;;;6.67;4.60;;;20.90;54.10;;;;;;4884028;29;20534;-93
2022/06/11 06:39:51;;;;;;;8.47;4.87;;;21.10;53.70;;;;;;4874172;29;20442;-90
2022/06/11 06:42:20;;;;;;;5.97;4.50;;;21.40;53.50;;;;;;4860388;29;22136;-92
2022/06/11 06:44:48;;;;;;;6.00;4.70;;;21.30;53.90;;;;;;4857405;29;20595;-91
2022/06/11 06:47:16;;;;;;;4.50;4.10;;;21.20;53.30;;;;;;4874372;29;20460;-92
2022/06/11 06:49:44;;;;;;;5.37;4.63;;;21.40;53.50;;;;;;4864672;29;20535;-92
2022/06/11 06:52:12;;;;;;;5.40;4.50;;;21.50;53.50;;;;;;4879486;29;20483;-91
2022/06/11 06:54:42;;;;;;;10.53;4.60;;;21.60;53.40;;;;;;4902112;29;20566;-91
2022/06/11 06:57:10;;;;;;;5.20;4.30;;;21.80;53.10;;;;;;4878945;29;20443;-91
2022/06/11 06:59:39;;;;;;;4.30;3.77;;;21.80;53.00;;;;;;4887407;29;20464;-90
2022/06/11 07:02:11;;;;;;;4.43;4.03;;;21.90;52.80;;;;;;4893157;29;20550;-92
2022/06/11 07:04:39;;;;;;;7.03;4.97;;;22.00;52.90;;;;;;4879103;29;20472;-91
2022/06/11 07:07:07;;;;;;;4.17;3.80;;;21.90;53.40;;;;;;4874336;29;20452;-92
2022/06/11 07:09:36;;;;;;;4.50;4.10;;;21.80;53.40;;;;;;4885487;29;20464;-92
2022/06/11 07:12:07;;;;;;;7.03;4.10;;;21.90;53.70;;;;;;4868426;29;21373;-93
2022/06/11 07:14:35;;;;;;;5.50;4.00;;;22.00;53.90;;;;;;4888096;29;20488;-91
2022/06/11 07:17:07;;;;;;;5.80;5.17;;;22.30;53.30;;;;;;4900995;29;20456;-91
2022/06/11 07:19:42;;;;;;;5.30;4.50;;;22.50;53.30;;;;;;4860653;29;21144;-91
2022/06/11 07:22:17;;;;;;;5.00;4.07;;;22.40;53.10;;;;;;4883679;29;20470;-92
2022/06/11 07:24:46;;;;;;;4.73;4.23;;;22.50;53.60;;;;;;4874358;29;20476;-90
2022/06/11 07:27:18;;;;;;;4.40;4.00;;;22.60;53.80;;;;;;4867326;29;20520;-91
2022/06/11 07:29:50;;;;;;;5.80;3.97;;;22.70;53.50;;;;;;4857772;29;20472;-91
2022/06/11 07:32:22;;;;;;;4.10;3.80;;;22.90;53.20;;;;;;4892192;29;20455;-90
2022/06/11 07:34:50;;;;;;;5.67;3.90;;;22.90;53.00;;;;;;4876276;29;20548;-91
2022/06/11 07:37:20;;;;;;;9.10;4.23;;;23.00;52.60;;;;;;4885563;29;21044;-90
2022/06/11 07:39:50;;;;;;;4.93;3.90;;;23.40;52.10;;;;;;4902384;29;20452;-94
2022/06/11 07:42:22;;;;;;;5.70;3.20;;;23.70;51.80;;;;;;4889891;29;20554;-90
2022/06/11 07:44:51;;;;;;;3.97;3.43;;;23.90;50.80;;;;;;4853123;29;20561;-91
2022/06/11 07:47:53;;;;;;;4.77;3.53;;;24.00;51.10;;;;;;4856803;29;20460;-89
2022/06/11 07:50:11;;;;;;;6.40;3.90;;;24.00;50.80;;;;;;4863478;29;20464;-88
2022/06/11 07:52:39;;;;;;;5.27;3.90;;;24.10;51.60;;;;;;4897946;29;20444;-90
2022/06/11 07:55:09;;;;;;;5.77;3.43;;;24.20;51.10;;;;;;4898060;29;20528;-90
2022/06/11 07:57:40;;;;;;;3.50;3.20;;;24.40;50.60;;;;;;4902346;29;20471;-91
2022/06/11 08:00:12;;;;;;;6.13;3.60;;;24.50;49.80;;;;;;4888861;29;20531;-93
2022/06/11 08:02:41;;;;;;;6.17;3.80;;;24.70;50.50;;;;;;4874072;29;20437;-90
2022/06/11 08:05:09;;;;;;;3.67;3.37;;;25.10;50.10;;;;;;4871157;29;20524;-90
2022/06/11 08:07:39;;;;;;;3.83;3.20;;;25.30;49.30;;;;;;4889923;29;20454;-90
2022/06/11 08:10:09;;;;;;;6.27;3.40;;;25.40;48.90;;;;;;4881938;29;20471;-90
2022/06/11 08:12:37;;;;;;;7.47;3.57;;;25.30;48.40;;;;;;4866378;29;20539;-90
2022/06/11 08:15:09;;;;;;;4.73;3.23;;;25.30;48.40;;;;;;4881116;29;20482;-90
2022/06/11 08:17:38;;;;;;;3.90;3.50;;;25.50;48.30;;;;;;4873628;29;20463;-90
2022/06/11 08:20:11;;;;;;;3.57;3.30;;;25.80;48.70;;;;;;4865091;29;21167;-91
2022/06/11 08:22:45;;;;;;;5.67;3.03;;;26.10;47.50;;;;;;4881161;29;20463;-92
2022/06/11 08:25:15;;;;;;;7.93;3.40;;;26.20;46.60;;;;;;4867539;29;20505;-89
2022/06/11 08:27:45;;;;;;;4.73;3.03;;;26.20;46.00;;;;;;4874767;29;20459;-88
2022/06/11 08:30:16;;;;;;;3.30;3.07;;;26.30;46.00;;;;;;4874225;29;20841;-88
2022/06/11 08:32:44;;;;;;;2.93;2.63;;;26.50;45.60;;;;;;4876802;29;20481;-88
2022/06/11 08:35:13;;;;;;;3.13;2.80;;;26.60;45.00;;;;;;4866330;29;21027;-88
2022/06/11 08:37:41;;;;;;;6.47;3.03;;;26.80;45.40;;;;;;4861711;29;20968;-86
2022/06/11 08:40:29;;;;;;;3.27;2.97;;;27.00;44.80;;;;;;4866986;29;20512;-88
2022/06/11 08:43:01;;;;;;;3.60;2.80;;;27.20;43.20;;;;;;4877697;29;20457;-88
2022/06/11 08:45:38;;;;;;;4.17;2.77;;;27.20;43.50;;;;;;4862699;29;20636;-88
2022/06/11 08:48:16;;;;;;;3.67;2.70;;;27.10;42.60;;;;;;4863590;29;20526;-88
2022/06/11 08:50:53;;;;;;;4.30;3.90;;;27.20;41.60;;;;;;4877286;29;20475;-88
2022/06/11 08:53:22;;;;;;;4.20;2.50;;;27.40;41.60;;;;;;4894740;29;20462;-88
2022/06/11 08:55:50;;;;;;;3.83;2.67;;;27.50;40.50;;;;;;4874891;29;21277;-88
2022/06/11 08:58:32;;;;;;;2.40;2.20;;;27.40;40.40;;;;;;4880402;29;20517;-88
2022/06/11 09:01:06;;;;;;;5.33;2.17;;;27.70;40.80;;;;;;4854693;29;20460;-89
2022/06/11 09:03:51;;;;;;;3.13;2.30;;;27.90;39.20;;;;;;4868296;29;20474;-89
2022/06/11 09:06:34;;;;;;;4.60;2.20;;;28.00;37.90;;;;;;4862009;29;20440;-88
2022/06/11 09:09:09;;;;;;;3.80;3.00;;;28.20;37.40;;;;;;4875726;29;20578;-88
2022/06/11 09:11:53;;;;;;;5.73;2.20;;;28.50;38.20;;;;;;4867298;29;20917;-88
2022/06/11 09:14:33;;;;;;;4.13;2.03;;;28.70;35.80;;;;;;4874238;29;20479;-88
2022/06/11 09:17:31;;;;;;;2.00;1.80;;;28.90;36.40;;;;;;4878136;29;21049;-87
2022/06/11 09:20:12;;;;;;;5.93;2.10;;;29.10;34.30;;;;;;4854108;29;20453;-86
2022/06/11 09:23:04;;;;;;;1.93;1.67;;;29.20;34.50;;;;;;4876622;29;20490;-88
2022/06/11 09:25:47;;;;;;;1.93;1.60;;;29.40;33.90;;;;;;4867546;29;20511;-88
2022/06/11 09:28:23;;;;;;;3.20;1.67;;;29.40;32.70;;;;;;4852762;29;21068;-88
2022/06/11 09:31:00;;;;;;;3.00;1.60;;;29.30;32.30;;;;;;4883156;29;20501;-87
2022/06/11 09:33:37;;;;;;;2.77;1.70;;;29.40;33.00;;;;;;4890544;29;20471;-86
2022/06/11 09:36:07;;;;;;;2.37;1.80;;;29.50;32.60;;;;;;4862556;29;20960;-86
2022/06/11 09:38:41;;;;;;;2.90;1.67;;;29.80;33.00;;;;;;4868924;29;20453;-86
2022/06/11 09:41:29;;;;;;;3.70;1.70;;;29.70;32.40;;;;;;4867690;29;21139;-87
2022/06/11 09:44:13;;;;;;;6.43;1.90;;;29.40;33.10;;;;;;4890865;29;20468;-86
2022/06/11 09:46:45;;;;;;;1.93;1.60;;;29.60;33.20;;;;;;4868159;29;20504;-87
2022/06/11 09:49:35;;;;;;;1.83;1.73;;;29.70;32.80;;;;;;4884398;29;20908;-86
2022/06/11 09:52:15;;;;;;;3.30;1.97;;;29.90;32.30;;;;;;4883431;29;21006;-87
2022/06/11 09:54:52;;;;;;;3.70;1.97;;;30.10;32.40;;;;;;4891862;29;20488;-87
2022/06/11 09:57:30;;;;;;;4.80;1.50;;;30.30;32.00;;;;;;4860994;29;20452;-88
2022/06/11 10:00:04;;;;;;;2.43;1.83;;;30.60;31.50;;;;;;4894170;29;20504;-87
2022/06/11 10:02:38;;;;;;;2.13;1.90;;;30.30;31.50;;;;;;4883211;29;20451;-85
2022/06/11 10:05:18;;;;;;;4.30;2.00;;;30.70;32.10;;;;;;4881459;29;20719;-86
2022/06/11 10:07:51;;;;;;;1.80;1.70;;;31.00;31.10;;;;;;4875853;29;20456;-87
2022/06/11 10:10:25;;;;;;;2.57;1.97;;;31.30;30.60;;;;;;4873691;29;21120;-86
2022/06/11 10:12:58;;;;;;;3.10;2.03;;;31.40;31.20;;;;;;4892008;29;20482;-87
2022/06/11 10:15:30;;;;;;;4.37;2.03;;;31.50;31.50;;;;;;4874609;29;20503;-86
2022/06/11 10:18:02;;;;;;;2.70;2.13;;;31.70;30.00;;;;;;4892645;29;20464;-86
2022/06/11 10:20:36;;;;;;;3.63;1.90;;;31.90;29.90;;;;;;4868804;29;20437;-86
2022/06/11 10:23:13;;;;;;;6.70;1.97;;;31.60;29.60;;;;;;4881993;29;20984;-87
2022/06/11 10:25:48;;;;;;;2.60;1.90;;;31.50;30.00;;;;;;4874965;29;20847;-87
2022/06/11 10:28:23;;;;;;;1.93;1.73;;;31.60;30.80;;;;;;4877666;29;21238;-88
2022/06/11 10:30:55;;;;;;;2.50;1.57;;;31.50;31.30;;;;;;4887389;29;20579;-88
2022/06/11 10:33:28;;;;;;;2.83;1.47;;;31.40;29.90;;;;;;4869030;29;20911;-88
2022/06/11 10:36:07;;;;;;;3.50;1.90;;;31.50;30.00;;;;;;4880504;29;20443;-86
2022/06/11 10:38:47;;;;;;;3.67;2.00;;;31.90;29.10;;;;;;4870421;29;20974;-88
2022/06/11 10:41:23;;;;;;;2.57;1.83;;;31.90;29.90;;;;;;4848084;29;20447;-87
2022/06/11 10:44:02;;;;;;;6.50;2.07;;;31.50;30.00;;;;;;4870605;29;20457;-87
2022/06/11 10:46:35;;;;;;;2.80;2.10;;;31.90;31.10;;;;;;4896804;29;20440;-87
2022/06/11 10:49:08;;;;;;;2.40;2.20;;;32.20;30.40;;;;;;4872249;29;20464;-89
2022/06/11 10:51:40;;;;;;;3.40;1.90;;;32.10;29.80;;;;;;4877282;29;20818;-87
2022/06/11 10:54:13;;;;;;;3.00;1.80;;;32.00;29.80;;;;;;4895120;29;20484;-88
2022/06/11 10:56:48;;;;;;;4.27;2.03;;;31.80;29.50;;;;;;4895691;29;20445;-88
2022/06/11 10:59:24;;;;;;;2.80;1.70;;;31.60;30.30;;;;;;4879907;29;20543;-87
2022/06/11 11:02:00;;;;;;;3.17;2.40;;;31.30;30.40;;;;;;4880678;29;20435;-88
2022/06/11 11:04:40;;;;;;;2.10;1.80;;;31.10;31.50;;;;;;4895441;29;20468;-89
2022/06/11 11:07:16;;;;;;;4.00;1.90;;;31.10;31.60;;;;;;4856014;29;20452;-88
2022/06/11 11:09:45;;;;;;;2.70;2.00;;;31.30;30.80;;;;;;4875602;29;20460;-88
2022/06/11 11:12:24;;;;;;;1.50;1.40;;;31.80;31.50;;;;;;4872726;29;20461;-88
2022/06/11 11:15:13;;;;;;;2.03;1.73;;;32.30;29.80;;;;;;4878382;29;20480;-88
2022/06/11 11:17:47;;;;;;;2.23;1.60;;;32.40;30.30;;;;;;4884623;29;20451;-87
2022/06/11 11:20:37;;;;;;;7.50;2.00;;;32.20;29.40;;;;;;4875934;29;20508;-87
2022/06/11 11:23:15;;;;;;;2.10;1.80;;;31.90;29.90;;;;;;4893667;29;20977;-86
2022/06/11 11:25:47;;;;;;;2.60;1.90;;;31.70;30.00;;;;;;4863471;29;20474;-88
2022/06/11 11:28:25;;;;;;;2.13;1.50;;;31.60;30.10;;;;;;4871705;29;20456;-86
2022/06/11 11:31:02;;;;;;;2.13;1.70;;;31.70;29.20;;;;;;4866102;29;20476;-87
2022/06/11 11:33:32;;;;;;;1.43;1.33;;;32.10;29.20;;;;;;4894555;29;20522;-86
2022/06/11 11:36:15;;;;;;;1.93;1.43;;;32.40;29.10;;;;;;4877004;29;20467;-86
2022/06/11 11:38:59;;;;;;;2.30;1.47;;;32.30;28.90;;;;;;4886813;29;21230;-87
2022/06/11 11:41:36;;;;;;;1.83;1.47;;;32.60;29.80;;;;;;4877433;29;20463;-87
2022/06/11 11:44:04;;;;;;;2.17;1.37;;;32.60;28.70;;;;;;4865556;29;21038;-87
2022/06/11 11:46:35;;;;;;;2.80;1.43;;;32.60;28.30;;;;;;4863541;29;20825;-87
2022/06/11 11:49:07;;;;;;;1.73;1.10;;;33.00;28.80;;;;;;4892157;29;21060;-87
2022/06/11 11:51:41;;;;;;;1.90;1.50;;;33.30;28.40;;;;;;4878770;29;21370;-89
2022/06/11 11:54:17;;;;;;;2.33;1.60;;;33.40;29.30;;;;;;4876238;29;20479;-88
2022/06/11 11:56:50;;;;;;;2.90;1.43;;;33.60;26.90;;;;;;4892663;29;20456;-88
2022/06/11 11:59:22;;;;;;;1.77;1.20;;;33.20;26.90;;;;;;4876363;29;20448;-90
2022/06/11 12:01:53;;;;;;;2.30;1.50;;;32.90;27.30;;;;;;4876430;29;20459;-87
2022/06/11 12:04:27;;;;;;;2.23;1.57;;;32.90;28.90;;;;;;4860513;29;20472;-87
2022/06/11 12:06:58;;;;;;;1.70;1.57;;;32.80;28.90;;;;;;4869846;29;20556;-88
2022/06/11 12:09:31;;;;;;;1.63;1.53;;;32.50;28.90;;;;;;4864016;29;20452;-87
2022/06/11 12:12:12;;;;;;;1.70;1.57;;;32.40;28.80;;;;;;4881339;29;20483;-87
2022/06/11 12:14:47;;;;;;;2.00;1.80;;;32.10;28.90;;;;;;4861274;29;21633;-88
2022/06/11 12:17:23;;;;;;;3.50;1.53;;;31.90;29.10;;;;;;4862365;29;20457;-87
2022/06/11 12:19:56;;;;;;;3.70;1.50;;;31.40;30.00;;;;;;4865732;29;20455;-88
2022/06/11 12:22:32;;;;;;;1.40;1.30;;;31.30;29.90;;;;;;4878634;29;20913;-87
2022/06/11 12:25:04;;;;;;;1.47;1.37;;;31.60;29.90;;;;;;4878595;29;20465;-87
2022/06/11 12:27:35;;;;;;;3.70;1.40;;;32.10;29.30;;;;;;4874956;29;20479;-87
2022/06/11 12:30:07;;;;;;;1.50;1.40;;;32.40;28.60;;;;;;4875920;29;20468;-88
2022/06/11 12:32:36;;;;;;;2.40;1.50;;;32.40;28.20;;;;;;4892951;29;20463;-87
2022/06/11 12:35:15;;;;;;;3.20;1.33;;;32.50;27.90;;;;;;4881642;29;20466;-87
2022/06/11 12:37:49;;;;;;;2.03;1.37;;;32.30;28.50;;;;;;4890110;29;20626;-87
2022/06/11 12:40:31;;;;;;;1.77;1.30;;;32.60;28.20;;;;;;4843042;29;20467;-87
2022/06/11 12:43:15;;;;;;;1.63;1.30;;;32.80;28.10;;;;;;4864740;29;20460;-88
2022/06/11 12:45:52;;;;;;;2.37;1.30;;;33.00;28.60;;;;;;4875816;29;20479;-88
2022/06/11 12:48:34;;;;;;;1.30;1.20;;;33.30;27.60;;;;;;4876927;29;20586;-88
2022/06/11 12:51:14;;;;;;;1.70;1.33;;;33.20;28.00;;;;;;4875346;29;21202;-88
2022/06/11 12:53:59;;;;;;;2.27;1.50;;;33.20;27.00;;;;;;4884906;29;20484;-88
2022/06/11 12:57:00;;;;;;;1.97;1.63;;;33.10;26.80;;;;;;4878327;29;20996;-86
2022/06/11 12:59:56;;;;;;;2.30;1.40;;;32.80;26.70;;;;;;4876419;29;20970;-88
2022/06/11 13:02:45;;;;;;;1.73;1.30;;;32.60;26.90;;;;;;4872283;29;20463;-88
2022/06/11 13:05:35;;;;;;;1.73;1.50;;;32.60;27.10;;;;;;4862062;29;20476;-88
2022/06/11 13:08:21;;;;;;;2.83;1.60;;;32.60;27.00;;;;;;4876004;29;20456;-87
2022/06/11 13:10:57;;;;;;;3.77;2.10;;;32.70;27.80;;;;;;4876527;29;20474;-89
2022/06/11 13:13:45;;;;;;;2.10;1.80;;;33.00;28.30;;;;;;4894162;29;20448;-87
2022/06/11 13:16:25;;;;;;;1.60;1.50;;;32.80;28.80;;;;;;4884543;29;20488;-88
2022/06/11 13:19:15;;;;;;;1.63;1.53;;;33.10;29.70;;;;;;4865064;29;20456;-87